Duncanville, Texas
Current Conditions -  °F | °C
As of 9:53 PM on Sunday 21 Dec 2014 (Local Time) from KRBD Reporting Station
Overcast Overcast  
Wind Chill: 53°   Ceiling: 1100
Heat Index: 53°   Visibility: 9mi
Dew Point: 47°   Wind: 9mph
Humidity: 80%   Direction: 160°SSE
Pressure: 29.78"   Gusts: 17mph
Location:  32.65°N, 96.91°W
Report Text: KRBD 220353Z 16008G15KT 9SM OVC011 12/08 A2978 RMK AO2 SLP081 T01170083
Loading
Personal Weather Stations






























Interactive Weather Map New forecast layout! Learn more

10-Day Weather Forecast

Advertisements
Track Severe Weather on mobile